createdAt,value
2023-09-17T00:02:26.104Z,70.91
2023-09-17T00:04:53.717Z,71.10
2023-09-17T00:07:21.330Z,70.80
2023-09-17T00:09:48.883Z,71.29
2023-09-17T00:12:16.472Z,71.42
2023-09-17T00:14:44.341Z,71.20
2023-09-17T00:17:12.688Z,71.10
2023-09-17T00:19:40.320Z,70.87
2023-09-17T00:22:10.657Z,71.34
2023-09-17T00:24:38.668Z,70.55
2023-09-17T00:27:06.271Z,70.87
2023-09-17T00:29:33.852Z,71.00
2023-09-17T00:32:01.456Z,71.53
2023-09-17T00:34:29.052Z,71.30
2023-09-17T00:36:57.183Z,71.38
2023-09-17T00:39:24.778Z,71.02
2023-09-17T00:41:53.303Z,71.14
2023-09-17T00:44:20.918Z,71.19
2023-09-17T00:46:48.525Z,71.27
2023-09-17T00:49:16.821Z,71.67
2023-09-17T00:51:44.414Z,71.39
2023-09-17T00:54:11.944Z,71.93
2023-09-17T00:56:39.472Z,71.78
2023-09-17T00:59:07.040Z,72.11
2023-09-17T01:01:35.133Z,72.26
2023-09-17T01:04:03.172Z,72.59
2023-09-17T01:06:30.879Z,72.56
2023-09-17T01:08:58.421Z,72.14
2023-09-17T01:11:26.228Z,72.36
2023-09-17T01:14:09.223Z,72.98
2023-09-17T01:16:36.829Z,72.00
2023-09-17T01:19:05.194Z,72.39
2023-09-17T01:21:33.528Z,72.34
2023-09-17T01:24:01.496Z,72.03
2023-09-17T01:26:29.028Z,71.98
2023-09-17T01:28:57.340Z,71.81
2023-09-17T01:31:24.926Z,72.18
2023-09-17T01:33:52.820Z,71.96
2023-09-17T01:36:20.988Z,71.65
2023-09-17T01:38:48.761Z,71.42
2023-09-17T01:41:16.823Z,71.52
2023-09-17T01:43:45.956Z,71.83
2023-09-17T01:46:13.986Z,71.62
2023-09-17T01:48:43.985Z,71.85
2023-09-17T01:51:12.635Z,71.57
2023-09-17T01:53:40.221Z,71.99
2023-09-17T01:56:07.753Z,72.11
2023-09-17T01:58:36.326Z,71.65
2023-09-17T02:01:04.600Z,72.08
2023-09-17T02:03:32.396Z,71.80
2023-09-17T02:06:01.047Z,72.06
2023-09-17T02:08:28.845Z,72.07
2023-09-17T02:10:56.436Z,71.75
2023-09-17T02:13:24.060Z,71.74
2023-09-17T02:15:51.606Z,71.81
2023-09-17T02:18:19.142Z,71.98
2023-09-17T02:20:46.710Z,71.73
2023-09-17T02:23:14.239Z,71.91
2023-09-17T02:25:41.813Z,71.79
2023-09-17T02:28:09.816Z,71.95
2023-09-17T02:30:37.334Z,71.98
2023-09-17T02:33:04.915Z,71.92
2023-09-17T02:35:32.522Z,72.26
2023-09-17T02:38:00.784Z,71.66
2023-09-17T02:40:28.565Z,71.76
2023-09-17T02:42:56.148Z,71.54
2023-09-17T02:45:23.684Z,72.21
2023-09-17T02:47:52.368Z,72.26
2023-09-17T02:50:20.873Z,71.91
2023-09-17T02:52:49.236Z,72.26
2023-09-17T02:55:16.986Z,72.36
2023-09-17T02:57:44.565Z,72.37
2023-09-17T03:00:14.323Z,72.31
2023-09-17T03:02:42.132Z,72.07
2023-09-17T03:05:12.222Z,72.48
2023-09-17T03:07:40.032Z,72.25
2023-09-17T03:10:12.887Z,72.12
2023-09-17T03:12:40.588Z,72.57
2023-09-17T03:15:08.322Z,72.50
2023-09-17T03:17:36.094Z,72.34
2023-09-17T03:20:14.865Z,72.33
2023-09-17T03:22:42.522Z,72.54
2023-09-17T03:25:10.398Z,72.73
2023-09-17T03:27:38.355Z,72.53
2023-09-17T03:30:06.382Z,72.71
2023-09-17T03:32:34.446Z,72.53
2023-09-17T03:35:02.202Z,72.85
2023-09-17T03:37:30.630Z,72.85
2023-09-17T03:39:58.172Z,73.12
2023-09-17T03:42:25.717Z,72.83
2023-09-17T03:44:53.252Z,72.92
2023-09-17T03:47:20.769Z,73.32
2023-09-17T03:49:48.879Z,73.11
2023-09-17T03:52:16.508Z,73.34
2023-09-17T03:54:44.520Z,73.15
2023-09-17T03:57:12.025Z,73.50
2023-09-17T03:59:39.583Z,73.89
2023-09-17T04:02:07.385Z,73.89
2023-09-17T04:04:34.995Z,73.81
2023-09-17T04:07:04.000Z,73.57
2023-09-17T04:09:31.524Z,73.22
2023-09-17T04:11:59.051Z,73.58
2023-09-17T04:14:27.504Z,73.81
2023-09-17T04:16:55.735Z,73.99
2023-09-17T04:19:23.378Z,73.81
2023-09-17T04:21:51.042Z,74.07
2023-09-17T04:24:20.055Z,74.14
2023-09-17T04:26:47.985Z,74.07
2023-09-17T04:29:15.664Z,74.14
2023-09-17T04:31:43.485Z,73.89
2023-09-17T04:34:11.057Z,73.79
2023-09-17T04:36:38.976Z,73.58
2023-09-17T04:39:06.571Z,73.68
2023-09-17T04:41:34.118Z,73.38
2023-09-17T04:44:01.959Z,74.10
2023-09-17T04:46:29.645Z,73.70
2023-09-17T04:48:57.270Z,73.72
2023-09-17T04:51:25.387Z,73.98
2023-09-17T04:53:53.063Z,73.93
2023-09-17T04:56:20.680Z,73.62
2023-09-17T04:58:48.665Z,73.38
2023-09-17T05:01:16.258Z,73.92
2023-09-17T05:03:44.445Z,73.90
2023-09-17T05:06:12.040Z,73.64
2023-09-17T05:08:39.601Z,73.65
2023-09-17T05:11:07.540Z,73.52
2023-09-17T05:13:35.176Z,73.96
2023-09-17T05:16:02.791Z,74.23
2023-09-17T05:18:30.336Z,74.01
2023-09-17T05:20:58.328Z,73.86
2023-09-17T05:23:25.888Z,73.70
2023-09-17T05:25:53.441Z,73.82
2023-09-17T05:28:21.998Z,73.75
2023-09-17T05:30:49.542Z,74.06
2023-09-17T05:33:17.139Z,74.13
2023-09-17T05:35:44.772Z,73.89
2023-09-17T05:38:12.334Z,73.86
2023-09-17T05:40:39.935Z,73.36
2023-09-17T05:43:07.921Z,74.07
2023-09-17T05:45:35.528Z,73.72
2023-09-17T05:48:03.155Z,73.72
2023-09-17T05:50:30.793Z,73.90
2023-09-17T05:52:59.063Z,73.53
2023-09-17T05:55:26.652Z,73.64
2023-09-17T05:57:54.295Z,73.55
2023-09-17T06:00:21.884Z,73.70
2023-09-17T06:02:49.500Z,73.21
2023-09-17T06:05:18.983Z,73.50
2023-09-17T06:07:46.645Z,73.38
2023-09-17T06:10:14.266Z,73.43
2023-09-17T06:12:42.346Z,73.25
2023-09-17T06:15:10.050Z,73.28
2023-09-17T06:17:38.639Z,73.24
2023-09-17T06:20:06.346Z,72.95
2023-09-17T06:22:33.977Z,73.40
2023-09-17T06:25:01.723Z,72.97
2023-09-17T06:27:31.158Z,73.20
2023-09-17T06:30:00.475Z,72.97
2023-09-17T06:32:28.295Z,73.02
2023-09-17T06:34:56.150Z,72.49
2023-09-17T06:37:23.876Z,72.65
2023-09-17T06:39:51.473Z,72.45
2023-09-17T06:42:19.132Z,72.27
2023-09-17T06:44:46.820Z,72.21
2023-09-17T06:47:14.532Z,71.82
2023-09-17T06:49:42.510Z,71.86
2023-09-17T06:52:10.207Z,71.64
2023-09-17T06:54:38.227Z,71.42
2023-09-17T06:57:05.890Z,71.41
2023-09-17T06:59:34.286Z,71.35
2023-09-17T07:02:01.879Z,70.54
2023-09-17T07:04:29.592Z,70.87
2023-09-17T07:07:01.902Z,70.77
2023-09-17T07:09:29.803Z,70.79
2023-09-17T07:11:57.769Z,70.77
2023-09-17T07:14:25.456Z,70.44
2023-09-17T07:16:53.199Z,70.41
2023-09-17T07:19:21.009Z,70.49
2023-09-17T07:21:48.667Z,70.41
2023-09-17T07:24:16.789Z,70.27
2023-09-17T07:26:44.880Z,70.26
2023-09-17T07:29:12.526Z,70.05
2023-09-17T07:31:41.339Z,69.50
2023-09-17T07:34:09.458Z,69.53
2023-09-17T07:36:37.174Z,69.44
2023-09-17T07:39:05.427Z,68.66
2023-09-17T07:41:33.291Z,68.43
2023-09-17T07:44:01.696Z,68.29
2023-09-17T07:46:29.488Z,68.46
2023-09-17T07:48:57.302Z,68.15
2023-09-17T07:51:25.618Z,68.11
2023-09-17T07:53:53.399Z,68.02
2023-09-17T07:56:23.875Z,67.81
2023-09-17T07:58:53.149Z,67.89
2023-09-17T08:01:20.858Z,68.12
2023-09-17T08:03:48.667Z,68.33
2023-09-17T08:06:16.463Z,67.69
2023-09-17T08:08:47.254Z,68.40
2023-09-17T08:11:17.059Z,68.28
2023-09-17T08:13:44.986Z,68.13
2023-09-17T08:16:12.864Z,68.09
2023-09-17T08:18:40.568Z,67.02
2023-09-17T08:21:08.325Z,66.83
2023-09-17T08:23:37.623Z,66.91
2023-09-17T08:26:06.430Z,67.07
2023-09-17T08:28:35.397Z,67.07
2023-09-17T08:31:03.497Z,66.30
2023-09-17T08:33:31.711Z,66.04
2023-09-17T08:35:59.461Z,65.94
2023-09-17T08:38:27.814Z,66.01
2023-09-17T08:40:56.111Z,66.27
2023-09-17T08:43:23.971Z,65.81
2023-09-17T08:45:51.784Z,64.92
2023-09-17T08:48:19.978Z,64.99
2023-09-17T08:50:47.762Z,64.93
2023-09-17T08:53:15.579Z,64.47
2023-09-17T08:55:44.998Z,64.19
2023-09-17T08:58:14.013Z,64.18
2023-09-17T09:00:41.713Z,64.75
2023-09-17T09:03:10.295Z,64.46
2023-09-17T09:05:38.523Z,64.01
2023-09-17T09:08:06.476Z,63.46
2023-09-17T09:10:35.211Z,63.71
2023-09-17T09:13:03.057Z,63.85
2023-09-17T09:15:30.786Z,63.13
2023-09-17T09:17:58.745Z,63.44
2023-09-17T09:20:26.857Z,63.25
2023-09-17T09:22:57.658Z,62.93
2023-09-17T09:25:25.817Z,62.49
2023-09-17T09:27:52.638Z,62.59
2023-09-17T09:30:20.424Z,62.50
2023-09-17T09:32:48.388Z,62.47
2023-09-17T09:35:17.038Z,62.76
2023-09-17T09:37:44.907Z,62.22
2023-09-17T09:40:12.827Z,62.43
2023-09-17T09:42:40.728Z,62.21
2023-09-17T09:45:08.549Z,62.34
2023-09-17T09:47:36.423Z,61.86
2023-09-17T09:50:04.691Z,61.10
2023-09-17T09:52:32.533Z,60.40
2023-09-17T09:55:03.002Z,60.87
2023-09-17T09:57:30.852Z,59.89
2023-09-17T09:59:58.810Z,59.91
2023-09-17T10:02:26.632Z,58.51
2023-09-17T10:04:54.487Z,57.86
2023-09-17T10:07:22.610Z,55.87
2023-09-17T10:09:50.517Z,54.70
2023-09-17T10:12:18.311Z,54.73
2023-09-17T10:14:46.090Z,53.79
2023-09-17T10:17:15.610Z,52.21
2023-09-17T10:19:43.325Z,51.71
2023-09-17T10:22:11.461Z,51.10
2023-09-17T10:24:39.837Z,50.21
2023-09-17T10:27:08.395Z,50.18
2023-09-17T10:29:36.425Z,50.66
2023-09-17T10:32:04.518Z,51.65
2023-09-17T10:34:32.903Z,52.34
2023-09-17T10:37:00.834Z,53.09
2023-09-17T10:39:30.041Z,54.46
2023-09-17T10:41:57.842Z,54.85
2023-09-17T10:44:26.218Z,55.05
2023-09-17T10:46:54.266Z,55.57
2023-09-17T10:49:22.625Z,55.13
2023-09-17T10:51:50.936Z,55.44
2023-09-17T10:54:18.858Z,55.58
2023-09-17T10:56:47.283Z,56.15
2023-09-17T10:59:14.936Z,56.08
2023-09-17T11:01:43.463Z,56.55
2023-09-17T11:04:11.679Z,56.46
2023-09-17T11:06:39.421Z,55.44
2023-09-17T11:09:07.416Z,55.09
2023-09-17T11:11:36.201Z,54.65
2023-09-17T11:14:04.587Z,52.92
2023-09-17T11:16:32.614Z,52.47
2023-09-17T11:18:59.498Z,52.90
2023-09-17T11:21:27.357Z,52.15
2023-09-17T11:23:55.166Z,51.04
2023-09-17T11:26:23.087Z,51.06
2023-09-17T11:28:50.853Z,50.92
2023-09-17T11:31:18.805Z,51.03
2023-09-17T11:33:47.086Z,50.68
2023-09-17T11:36:15.305Z,49.71
2023-09-17T11:38:43.210Z,51.11
2023-09-17T11:41:11.322Z,50.40
2023-09-17T11:43:39.438Z,47.71
2023-09-17T11:46:07.416Z,46.68
2023-09-17T11:48:35.621Z,45.34
2023-09-17T11:51:04.073Z,44.61
2023-09-17T11:53:31.973Z,42.80
2023-09-17T11:55:59.859Z,42.57
2023-09-17T11:58:33.655Z,42.05
2023-09-17T12:01:01.586Z,41.48
2023-09-17T12:03:30.512Z,40.20
2023-09-17T12:05:58.410Z,40.41
2023-09-17T12:08:26.214Z,40.72
2023-09-17T12:11:14.011Z,40.39
2023-09-17T12:13:42.587Z,42.01
2023-09-17T12:16:16.453Z,42.25
2023-09-17T12:18:46.082Z,41.91
2023-09-17T12:21:15.051Z,41.57
2023-09-17T12:23:53.716Z,41.09
2023-09-17T12:26:21.641Z,41.96
2023-09-17T12:28:49.593Z,41.14
2023-09-17T12:31:17.523Z,41.39
2023-09-17T12:33:45.975Z,41.16
2023-09-17T12:36:13.707Z,41.87
2023-09-17T12:38:42.080Z,41.17
2023-09-17T12:41:10.418Z,41.66
2023-09-17T12:43:38.321Z,41.56
2023-09-17T12:46:08.283Z,42.01
2023-09-17T12:48:38.052Z,42.92
2023-09-17T12:51:06.198Z,44.46
2023-09-17T12:53:34.140Z,45.48
2023-09-17T12:56:02.297Z,45.93
2023-09-17T12:58:30.435Z,46.94
2023-09-17T13:00:58.684Z,46.98
2023-09-17T13:03:26.519Z,48.41
2023-09-17T13:05:54.385Z,48.59
2023-09-17T13:08:24.461Z,48.48
2023-09-17T13:10:52.985Z,48.37
2023-09-17T13:13:21.168Z,48.28
2023-09-17T13:15:49.063Z,48.28
2023-09-17T13:18:16.979Z,48.36
2023-09-17T13:20:44.769Z,48.11
2023-09-17T13:23:14.809Z,47.26
2023-09-17T13:25:42.683Z,47.00
2023-09-17T13:28:10.426Z,47.26
2023-09-17T13:30:39.294Z,47.36
2023-09-17T13:33:07.388Z,47.33
2023-09-17T13:35:35.928Z,47.55
2023-09-17T13:38:06.170Z,48.39
2023-09-17T13:40:34.004Z,48.25
2023-09-17T13:43:02.151Z,49.07
2023-09-17T13:45:30.070Z,48.95
2023-09-17T13:47:57.786Z,48.50
2023-09-17T13:50:25.526Z,48.04
2023-09-17T13:52:53.496Z,48.72
2023-09-17T13:55:21.346Z,47.49
2023-09-17T13:57:49.438Z,47.80
2023-09-17T14:00:17.351Z,47.59
2023-09-17T14:02:45.257Z,47.71
2023-09-17T14:05:13.252Z,48.59
2023-09-17T14:07:41.167Z,47.83
2023-09-17T14:10:09.104Z,47.89
2023-09-17T14:12:37.365Z,47.74
2023-09-17T14:15:06.105Z,47.74
2023-09-17T14:17:34.019Z,47.75
2023-09-17T14:20:01.880Z,47.68
2023-09-17T14:22:29.858Z,48.39
2023-09-17T14:24:57.693Z,48.85
2023-09-17T14:27:26.016Z,49.51
2023-09-17T14:29:54.018Z,49.12
2023-09-17T14:32:24.111Z,49.59
2023-09-17T14:34:56.598Z,50.02
2023-09-17T14:37:25.538Z,49.41
2023-09-17T14:39:53.361Z,49.74
2023-09-17T14:42:22.757Z,49.91
2023-09-17T14:44:50.575Z,49.55
2023-09-17T14:47:18.528Z,49.53
2023-09-17T14:49:48.158Z,49.66
2023-09-17T14:52:15.918Z,50.27
2023-09-17T14:54:43.729Z,49.11
2023-09-17T14:57:11.659Z,49.04
2023-09-17T14:59:40.087Z,47.73
2023-09-17T15:02:09.145Z,46.64
2023-09-17T15:04:37.543Z,46.14
2023-09-17T15:07:06.056Z,45.73
2023-09-17T15:09:33.899Z,45.69
2023-09-17T15:12:05.080Z,46.74
2023-09-17T15:14:32.902Z,46.92
2023-09-17T15:17:01.317Z,47.08
2023-09-17T15:19:29.206Z,47.81
2023-09-17T15:21:56.957Z,48.78
2023-09-17T15:24:24.821Z,49.45
2023-09-17T15:26:53.522Z,50.01
2023-09-17T15:29:21.702Z,50.71
2023-09-17T15:31:50.005Z,50.78
2023-09-17T15:34:18.051Z,51.21
2023-09-17T15:36:45.943Z,52.33
2023-09-17T15:39:13.699Z,52.52
2023-09-17T15:41:41.588Z,52.96
2023-09-17T15:44:09.528Z,53.12
2023-09-17T15:46:37.619Z,52.99
2023-09-17T15:49:05.624Z,53.67
2023-09-17T15:51:35.626Z,53.43
2023-09-17T15:54:03.442Z,53.85
2023-09-17T15:56:31.419Z,53.61
2023-09-17T15:58:59.333Z,54.07
2023-09-17T16:01:27.195Z,54.16
2023-09-17T16:03:56.047Z,54.66
2023-09-17T16:06:25.214Z,54.76
2023-09-17T16:08:53.387Z,54.96
2023-09-17T16:11:21.595Z,55.32
2023-09-17T16:13:49.915Z,54.82
2023-09-17T16:16:18.772Z,55.00
2023-09-17T16:18:46.598Z,55.45
2023-09-17T16:21:14.480Z,55.31
2023-09-17T16:23:42.408Z,55.67
2023-09-17T16:26:10.350Z,55.39
2023-09-17T16:28:38.976Z,55.70
2023-09-17T16:31:09.694Z,56.05
2023-09-17T16:33:37.782Z,56.15
2023-09-17T16:36:05.841Z,56.51
2023-09-17T16:38:33.685Z,56.27
2023-09-17T16:41:02.303Z,56.80
2023-09-17T16:43:30.141Z,56.74
2023-09-17T16:45:57.993Z,57.03
2023-09-17T16:48:28.149Z,57.00
2023-09-17T16:50:56.034Z,57.36
2023-09-17T16:53:24.061Z,58.00
2023-09-17T16:55:52.067Z,57.73
2023-09-17T16:58:20.318Z,57.57
2023-09-17T17:00:48.219Z,58.36
2023-09-17T17:03:16.517Z,58.13
2023-09-17T17:05:44.416Z,58.94
2023-09-17T17:08:12.308Z,59.13
2023-09-17T17:10:40.393Z,59.35
2023-09-17T17:13:08.353Z,59.16
2023-09-17T17:15:36.267Z,59.04
2023-09-17T17:18:04.797Z,59.66
2023-09-17T17:20:33.171Z,60.22
2023-09-17T17:23:00.977Z,59.57
2023-09-17T17:25:29.043Z,60.47
2023-09-17T17:27:56.900Z,60.37
2023-09-17T17:30:26.259Z,60.43
2023-09-17T17:32:54.361Z,60.65
2023-09-17T17:35:22.222Z,60.79
2023-09-17T17:37:50.030Z,60.99
2023-09-17T17:40:23.650Z,61.02
2023-09-17T17:42:55.374Z,61.35
2023-09-17T17:45:23.216Z,61.74
2023-09-17T17:47:51.256Z,61.87
2023-09-17T17:50:19.159Z,61.97
2023-09-17T17:52:47.090Z,62.59
2023-09-17T17:55:15.971Z,62.50
2023-09-17T17:57:44.203Z,63.13
2023-09-17T18:00:12.056Z,63.12
2023-09-17T18:02:40.840Z,63.44
2023-09-17T18:05:09.477Z,63.08
2023-09-17T18:07:37.439Z,63.14
2023-09-17T18:10:06.031Z,63.41
2023-09-17T18:12:35.084Z,63.71
2023-09-17T18:15:03.045Z,63.26
2023-09-17T18:17:31.434Z,63.64
2023-09-17T18:19:59.383Z,63.71
2023-09-17T18:22:27.290Z,64.29
2023-09-17T18:24:55.304Z,63.98
2023-09-17T18:27:24.265Z,63.99
2023-09-17T18:29:52.022Z,64.30
2023-09-17T18:32:19.896Z,64.44
2023-09-17T18:34:47.751Z,64.32
2023-09-17T18:37:15.665Z,64.61
2023-09-17T18:39:43.519Z,64.52
2023-09-17T18:42:11.272Z,64.84
2023-09-17T18:44:39.728Z,65.43
2023-09-17T18:47:07.622Z,64.91
2023-09-17T18:49:35.350Z,65.07
2023-09-17T18:52:04.477Z,65.25
2023-09-17T18:54:32.357Z,65.61
2023-09-17T18:57:00.216Z,65.39
2023-09-17T18:59:27.948Z,65.64
2023-09-17T19:01:55.850Z,65.24
2023-09-17T19:04:23.627Z,65.75
2023-09-17T19:06:52.181Z,65.49
2023-09-17T19:09:19.996Z,65.78
2023-09-17T19:11:48.216Z,66.16
2023-09-17T19:14:16.024Z,65.79
2023-09-17T19:16:43.941Z,66.32
2023-09-17T19:19:11.918Z,66.15
2023-09-17T19:21:41.601Z,65.76
2023-09-17T19:24:09.994Z,66.14
2023-09-17T19:26:37.767Z,66.27
2023-09-17T19:29:05.768Z,66.59
2023-09-17T19:31:36.922Z,66.75
2023-09-17T19:34:09.081Z,66.50
2023-09-17T19:36:36.786Z,66.48
2023-09-17T19:39:04.759Z,66.45
2023-09-17T19:41:35.056Z,66.82
2023-09-17T19:44:03.219Z,66.98
2023-09-17T19:46:32.927Z,66.85
2023-09-17T19:49:00.840Z,66.76
2023-09-17T19:51:28.742Z,66.79
2023-09-17T19:53:56.600Z,67.35
2023-09-17T19:56:25.010Z,67.21
2023-09-17T19:58:53.062Z,67.45
2023-09-17T20:01:21.190Z,67.68
2023-09-17T20:03:49.140Z,67.44
2023-09-17T20:06:17.039Z,67.09
2023-09-17T20:08:44.877Z,67.21
2023-09-17T20:11:12.775Z,67.67
2023-09-17T20:13:40.665Z,67.91
2023-09-17T20:16:08.389Z,67.29
2023-09-17T20:18:36.154Z,67.59
2023-09-17T20:21:04.955Z,67.84
2023-09-17T20:23:37.711Z,67.46
2023-09-17T20:26:06.301Z,67.87
2023-09-17T20:28:34.143Z,67.88
2023-09-17T20:31:02.071Z,67.74
2023-09-17T20:33:29.867Z,67.45
2023-09-17T20:35:57.822Z,67.81
2023-09-17T20:38:25.812Z,68.04
2023-09-17T20:40:53.926Z,67.94
2023-09-17T20:43:21.766Z,67.69
2023-09-17T20:45:49.798Z,67.83
2023-09-17T20:48:19.055Z,68.38
2023-09-17T20:50:46.873Z,68.30
2023-09-17T20:53:14.706Z,67.65
2023-09-17T20:55:42.520Z,67.98
2023-09-17T20:58:10.400Z,68.28
2023-09-17T21:00:38.219Z,68.03
2023-09-17T21:03:06.568Z,68.37
2023-09-17T21:05:34.462Z,68.03
2023-09-17T21:08:02.334Z,68.00
2023-09-17T21:10:30.045Z,67.93
2023-09-17T21:12:57.731Z,68.16
2023-09-17T21:15:26.006Z,68.33
2023-09-17T21:17:53.726Z,68.50
2023-09-17T21:20:21.487Z,68.38
2023-09-17T21:22:49.615Z,68.65
2023-09-17T21:25:18.642Z,68.19
2023-09-17T21:27:47.084Z,68.66
2023-09-17T21:30:14.917Z,68.56
2023-09-17T21:32:44.032Z,68.29
2023-09-17T21:35:12.999Z,68.30
2023-09-17T21:37:41.594Z,68.75
2023-09-17T21:40:09.740Z,68.55
2023-09-17T21:42:37.071Z,68.53
2023-09-17T21:45:05.052Z,68.49
2023-09-17T21:47:33.074Z,68.72
2023-09-17T21:50:01.872Z,68.66
2023-09-17T21:52:30.919Z,68.95
2023-09-17T21:54:58.662Z,68.95
2023-09-17T21:57:26.405Z,68.68
2023-09-17T21:59:54.136Z,68.46
2023-09-17T22:02:21.887Z,68.75
2023-09-17T22:04:49.952Z,68.37
2023-09-17T22:07:18.828Z,68.64
2023-09-17T22:09:46.482Z,68.74
2023-09-17T22:12:17.888Z,68.42
2023-09-17T22:14:46.931Z,68.47
2023-09-17T22:17:17.642Z,68.79
2023-09-17T22:19:46.420Z,68.77
2023-09-17T22:22:14.097Z,68.41
2023-09-17T22:24:41.728Z,68.85
2023-09-17T22:27:10.013Z,68.25
2023-09-17T22:29:38.150Z,68.74
2023-09-17T22:32:05.885Z,68.45
2023-09-17T22:34:33.480Z,68.39
2023-09-17T22:37:01.337Z,68.57
2023-09-17T22:39:28.997Z,68.43
2023-09-17T22:41:56.660Z,68.64
2023-09-17T22:44:25.242Z,68.58
2023-09-17T22:46:53.226Z,68.87
2023-09-17T22:49:20.940Z,68.75
2023-09-17T22:51:48.975Z,68.26
2023-09-17T22:54:16.550Z,68.39
2023-09-17T22:56:44.158Z,68.57
2023-09-17T22:59:11.773Z,68.92
2023-09-17T23:01:40.090Z,68.57
2023-09-17T23:04:08.626Z,68.68
2023-09-17T23:06:36.433Z,68.89
2023-09-17T23:09:04.704Z,68.81
2023-09-17T23:11:32.498Z,69.00
2023-09-17T23:14:06.852Z,69.10
2023-09-17T23:16:34.716Z,69.65
2023-09-17T23:19:02.469Z,69.48
2023-09-17T23:21:30.337Z,69.27
2023-09-17T23:23:59.525Z,68.82
2023-09-17T23:26:29.438Z,69.26
2023-09-17T23:28:57.585Z,69.43
2023-09-17T23:31:26.458Z,69.28
2023-09-17T23:33:54.027Z,69.95
2023-09-17T23:36:21.710Z,69.27
2023-09-17T23:38:51.267Z,69.81
2023-09-17T23:41:19.139Z,69.46
2023-09-17T23:43:46.858Z,70.03
2023-09-17T23:46:14.555Z,69.92
2023-09-17T23:48:42.122Z,69.93
2023-09-17T23:51:09.720Z,69.81
2023-09-17T23:53:37.297Z,69.91
2023-09-17T23:56:05.578Z,70.39
2023-09-17T23:58:33.157Z,70.36
